sensor_id;sensor_type;location;lat;lon;timestamp;P1;durP1;ratioP1;P2;durP2;ratioP2
56075;SDS011;41951;49.022;12.066;2023-08-20T00:01:13;13.70;;;9.10;;
56075;SDS011;41951;49.022;12.066;2023-08-20T00:03:44;13.35;;;8.35;;
56075;SDS011;41951;49.022;12.066;2023-08-20T00:06:11;11.43;;;8.63;;
56075;SDS011;41951;49.022;12.066;2023-08-20T00:08:37;11.88;;;8.05;;
56075;SDS011;41951;49.022;12.066;2023-08-20T00:11:02;14.80;;;8.55;;
56075;SDS011;41951;49.022;12.066;2023-08-20T00:13:30;11.18;;;7.80;;
56075;SDS011;41951;49.022;12.066;2023-08-20T00:15:56;11.32;;;8.43;;
56075;SDS011;41951;49.022;12.066;2023-08-20T00:18:22;12.38;;;8.65;;
56075;SDS011;41951;49.022;12.066;2023-08-20T00:20:48;12.05;;;8.38;;
56075;SDS011;41951;49.022;12.066;2023-08-20T00:23:14;13.40;;;9.00;;
56075;SDS011;41951;49.022;12.066;2023-08-20T00:25:40;11.73;;;9.13;;
56075;SDS011;41951;49.022;12.066;2023-08-20T00:28:05;9.75;;;7.82;;
56075;SDS011;41951;49.022;12.066;2023-08-20T00:30:31;9.20;;;7.30;;
56075;SDS011;41951;49.022;12.066;2023-08-20T00:32:57;11.52;;;7.05;;
56075;SDS011;41951;49.022;12.066;2023-08-20T00:35:22;9.95;;;6.95;;
56075;SDS011;41951;49.022;12.066;2023-08-20T00:37:48;9.50;;;7.25;;
56075;SDS011;41951;49.022;12.066;2023-08-20T00:40:13;11.38;;;7.03;;
56075;SDS011;41951;49.022;12.066;2023-08-20T00:42:39;11.70;;;7.40;;
56075;SDS011;41951;49.022;12.066;2023-08-20T00:45:05;9.52;;;6.93;;
56075;SDS011;41951;49.022;12.066;2023-08-20T00:47:31;12.32;;;6.80;;
56075;SDS011;41951;49.022;12.066;2023-08-20T00:49:56;8.32;;;7.07;;
56075;SDS011;41951;49.022;12.066;2023-08-20T00:52:22;13.15;;;7.45;;
56075;SDS011;41951;49.022;12.066;2023-08-20T00:54:48;10.80;;;7.18;;
56075;SDS011;41951;49.022;12.066;2023-08-20T00:57:14;14.60;;;8.30;;
56075;SDS011;41951;49.022;12.066;2023-08-20T00:59:44;10.10;;;8.07;;
56075;SDS011;41951;49.022;12.066;2023-08-20T01:02:14;14.45;;;8.25;;
56075;SDS011;41951;49.022;12.066;2023-08-20T01:04:41;9.75;;;7.85;;
56075;SDS011;41951;49.022;12.066;2023-08-20T01:10:00;11.05;;;8.23;;
56075;SDS011;41951;49.022;12.066;2023-08-20T01:12:28;15.07;;;8.75;;
56075;SDS011;41951;49.022;12.066;2023-08-20T01:14:54;11.75;;;8.52;;
56075;SDS011;41951;49.022;12.066;2023-08-20T01:17:19;14.40;;;8.88;;
56075;SDS011;41951;49.022;12.066;2023-08-20T01:19:45;10.15;;;8.45;;
56075;SDS011;41951;49.022;12.066;2023-08-20T01:30:42;13.43;;;9.05;;
56075;SDS011;41951;49.022;12.066;2023-08-20T01:33:09;10.82;;;8.23;;
56075;SDS011;41951;49.022;12.066;2023-08-20T01:35:37;13.07;;;9.30;;
56075;SDS011;41951;49.022;12.066;2023-08-20T01:38:03;10.63;;;9.15;;
56075;SDS011;41951;49.022;12.066;2023-08-20T01:40:29;13.15;;;8.63;;
56075;SDS011;41951;49.022;12.066;2023-08-20T01:42:55;14.23;;;8.70;;
56075;SDS011;41951;49.022;12.066;2023-08-20T01:45:22;13.73;;;8.07;;
56075;SDS011;41951;49.022;12.066;2023-08-20T01:47:47;10.68;;;7.88;;
56075;SDS011;41951;49.022;12.066;2023-08-20T01:50:13;9.43;;;6.60;;
56075;SDS011;41951;49.022;12.066;2023-08-20T01:52:38;10.73;;;7.60;;
56075;SDS011;41951;49.022;12.066;2023-08-20T01:55:04;10.55;;;7.50;;
56075;SDS011;41951;49.022;12.066;2023-08-20T01:57:30;9.18;;;6.85;;
56075;SDS011;41951;49.022;12.066;2023-08-20T01:59:56;11.20;;;7.35;;
56075;SDS011;41951;49.022;12.066;2023-08-20T02:02:23;10.38;;;8.18;;
56075;SDS011;41951;49.022;12.066;2023-08-20T02:04:49;13.15;;;8.45;;
56075;SDS011;41951;49.022;12.066;2023-08-20T02:07:14;11.23;;;7.95;;
56075;SDS011;41951;49.022;12.066;2023-08-20T02:09:40;12.30;;;8.35;;
56075;SDS011;41951;49.022;12.066;2023-08-20T02:12:06;14.45;;;9.43;;
56075;SDS011;41951;49.022;12.066;2023-08-20T02:14:32;17.45;;;10.10;;
56075;SDS011;41951;49.022;12.066;2023-08-20T02:17:00;12.00;;;8.50;;
56075;SDS011;41951;49.022;12.066;2023-08-20T02:19:27;11.65;;;9.10;;
56075;SDS011;41951;49.022;12.066;2023-08-20T02:21:52;12.10;;;8.27;;
56075;SDS011;41951;49.022;12.066;2023-08-20T02:24:18;13.80;;;8.30;;
56075;SDS011;41951;49.022;12.066;2023-08-20T02:26:44;13.52;;;8.90;;
56075;SDS011;41951;49.022;12.066;2023-08-20T02:29:09;12.02;;;8.30;;
56075;SDS011;41951;49.022;12.066;2023-08-20T02:31:35;14.93;;;8.35;;
56075;SDS011;41951;49.022;12.066;2023-08-20T02:34:01;11.07;;;9.07;;
56075;SDS011;41951;49.022;12.066;2023-08-20T02:36:26;12.93;;;8.60;;
56075;SDS011;41951;49.022;12.066;2023-08-20T02:38:52;12.30;;;8.63;;
56075;SDS011;41951;49.022;12.066;2023-08-20T02:41:18;14.63;;;8.80;;
56075;SDS011;41951;49.022;12.066;2023-08-20T02:43:43;13.80;;;8.65;;
56075;SDS011;41951;49.022;12.066;2023-08-20T02:46:09;13.13;;;8.57;;
56075;SDS011;41951;49.022;12.066;2023-08-20T02:48:35;13.15;;;8.52;;
56075;SDS011;41951;49.022;12.066;2023-08-20T02:51:01;14.35;;;8.77;;
56075;SDS011;41951;49.022;12.066;2023-08-20T02:53:27;15.55;;;9.27;;
56075;SDS011;41951;49.022;12.066;2023-08-20T02:55:53;13.93;;;8.75;;
56075;SDS011;41951;49.022;12.066;2023-08-20T02:58:19;13.13;;;9.10;;
56075;SDS011;41951;49.022;12.066;2023-08-20T03:00:45;16.63;;;11.43;;
56075;SDS011;41951;49.022;12.066;2023-08-20T03:03:11;13.10;;;9.63;;
56075;SDS011;41951;49.022;12.066;2023-08-20T03:05:37;12.40;;;9.10;;
56075;SDS011;41951;49.022;12.066;2023-08-20T03:08:02;11.98;;;8.35;;
56075;SDS011;41951;49.022;12.066;2023-08-20T03:10:32;12.85;;;9.25;;
56075;SDS011;41951;49.022;12.066;2023-08-20T03:12:58;14.00;;;10.82;;
56075;SDS011;41951;49.022;12.066;2023-08-20T03:15:24;14.00;;;10.20;;
56075;SDS011;41951;49.022;12.066;2023-08-20T03:17:50;16.15;;;11.65;;
56075;SDS011;41951;49.022;12.066;2023-08-20T03:20:16;18.08;;;12.82;;
56075;SDS011;41951;49.022;12.066;2023-08-20T03:22:41;17.90;;;12.63;;
56075;SDS011;41951;49.022;12.066;2023-08-20T03:25:07;19.60;;;13.77;;
56075;SDS011;41951;49.022;12.066;2023-08-20T03:27:32;18.10;;;13.55;;
56075;SDS011;41951;49.022;12.066;2023-08-20T03:29:58;13.02;;;10.60;;
56075;SDS011;41951;49.022;12.066;2023-08-20T03:32:24;15.48;;;11.18;;
56075;SDS011;41951;49.022;12.066;2023-08-20T03:34:50;16.27;;;10.00;;
56075;SDS011;41951;49.022;12.066;2023-08-20T03:37:15;14.25;;;10.88;;
56075;SDS011;41951;49.022;12.066;2023-08-20T03:39:41;15.35;;;11.15;;
56075;SDS011;41951;49.022;12.066;2023-08-20T03:42:07;15.70;;;11.10;;
56075;SDS011;41951;49.022;12.066;2023-08-20T03:44:32;14.48;;;9.98;;
56075;SDS011;41951;49.022;12.066;2023-08-20T03:46:58;14.32;;;10.02;;
56075;SDS011;41951;49.022;12.066;2023-08-20T03:49:24;14.80;;;9.95;;
56075;SDS011;41951;49.022;12.066;2023-08-20T03:51:49;14.73;;;10.40;;
56075;SDS011;41951;49.022;12.066;2023-08-20T03:54:15;17.38;;;9.88;;
56075;SDS011;41951;49.022;12.066;2023-08-20T03:56:41;13.82;;;9.27;;
56075;SDS011;41951;49.022;12.066;2023-08-20T03:59:07;15.60;;;10.18;;
56075;SDS011;41951;49.022;12.066;2023-08-20T04:01:32;14.48;;;9.60;;
56075;SDS011;41951;49.022;12.066;2023-08-20T04:03:58;17.30;;;9.60;;
56075;SDS011;41951;49.022;12.066;2023-08-20T04:06:23;10.63;;;8.38;;
56075;SDS011;41951;49.022;12.066;2023-08-20T04:08:49;11.20;;;8.43;;
56075;SDS011;41951;49.022;12.066;2023-08-20T04:11:14;12.27;;;8.32;;
56075;SDS011;41951;49.022;12.066;2023-08-20T04:13:40;9.93;;;7.68;;
56075;SDS011;41951;49.022;12.066;2023-08-20T04:16:08;10.30;;;7.97;;
56075;SDS011;41951;49.022;12.066;2023-08-20T04:18:34;10.13;;;7.82;;
56075;SDS011;41951;49.022;12.066;2023-08-20T04:20:59;9.30;;;7.93;;
56075;SDS011;41951;49.022;12.066;2023-08-20T04:23:25;15.75;;;7.90;;
56075;SDS011;41951;49.022;12.066;2023-08-20T04:25:51;12.27;;;8.05;;
56075;SDS011;41951;49.022;12.066;2023-08-20T04:28:16;10.07;;;7.72;;
56075;SDS011;41951;49.022;12.066;2023-08-20T04:30:42;12.18;;;8.18;;
56075;SDS011;41951;49.022;12.066;2023-08-20T04:33:08;11.93;;;8.05;;
56075;SDS011;41951;49.022;12.066;2023-08-20T04:35:34;11.57;;;7.20;;
56075;SDS011;41951;49.022;12.066;2023-08-20T04:38:00;9.82;;;7.70;;
56075;SDS011;41951;49.022;12.066;2023-08-20T04:40:26;11.63;;;7.70;;
56075;SDS011;41951;49.022;12.066;2023-08-20T04:42:52;11.95;;;8.18;;
56075;SDS011;41951;49.022;12.066;2023-08-20T04:45:17;11.95;;;8.27;;
56075;SDS011;41951;49.022;12.066;2023-08-20T04:47:44;14.68;;;8.75;;
56075;SDS011;41951;49.022;12.066;2023-08-20T04:50:13;12.48;;;9.63;;
56075;SDS011;41951;49.022;12.066;2023-08-20T04:52:39;13.73;;;10.65;;
56075;SDS011;41951;49.022;12.066;2023-08-20T04:55:05;15.57;;;12.57;;
56075;SDS011;41951;49.022;12.066;2023-08-20T04:57:32;14.73;;;12.55;;
56075;SDS011;41951;49.022;12.066;2023-08-20T04:59:58;14.15;;;11.45;;
56075;SDS011;41951;49.022;12.066;2023-08-20T05:02:24;17.90;;;12.23;;
56075;SDS011;41951;49.022;12.066;2023-08-20T05:04:49;15.00;;;10.35;;
56075;SDS011;41951;49.022;12.066;2023-08-20T05:07:15;14.60;;;10.05;;
56075;SDS011;41951;49.022;12.066;2023-08-20T05:09:41;15.07;;;10.18;;
56075;SDS011;41951;49.022;12.066;2023-08-20T05:12:06;11.55;;;8.15;;
56075;SDS011;41951;49.022;12.066;2023-08-20T05:14:32;11.75;;;9.07;;
56075;SDS011;41951;49.022;12.066;2023-08-20T05:16:58;13.65;;;8.68;;
56075;SDS011;41951;49.022;12.066;2023-08-20T05:19:23;10.75;;;8.68;;
56075;SDS011;41951;49.022;12.066;2023-08-20T05:21:49;12.55;;;10.05;;
56075;SDS011;41951;49.022;12.066;2023-08-20T05:24:15;17.35;;;11.23;;
56075;SDS011;41951;49.022;12.066;2023-08-20T05:26:40;20.45;;;12.30;;
56075;SDS011;41951;49.022;12.066;2023-08-20T05:29:06;18.02;;;11.98;;
56075;SDS011;41951;49.022;12.066;2023-08-20T05:31:32;13.05;;;10.98;;
56075;SDS011;41951;49.022;12.066;2023-08-20T05:33:58;16.45;;;12.30;;
56075;SDS011;41951;49.022;12.066;2023-08-20T05:36:24;15.05;;;12.15;;
56075;SDS011;41951;49.022;12.066;2023-08-20T05:38:49;14.32;;;10.68;;
56075;SDS011;41951;49.022;12.066;2023-08-20T05:41:15;14.73;;;10.13;;
56075;SDS011;41951;49.022;12.066;2023-08-20T05:43:40;14.80;;;11.73;;
56075;SDS011;41951;49.022;12.066;2023-08-20T05:46:06;16.70;;;11.68;;
56075;SDS011;41951;49.022;12.066;2023-08-20T05:48:32;15.45;;;11.90;;
56075;SDS011;41951;49.022;12.066;2023-08-20T05:50:57;18.48;;;12.30;;
56075;SDS011;41951;49.022;12.066;2023-08-20T05:53:23;16.38;;;10.85;;
56075;SDS011;41951;49.022;12.066;2023-08-20T05:55:49;12.88;;;10.98;;
56075;SDS011;41951;49.022;12.066;2023-08-20T05:58:14;15.77;;;11.10;;
56075;SDS011;41951;49.022;12.066;2023-08-20T06:00:40;12.88;;;10.68;;
56075;SDS011;41951;49.022;12.066;2023-08-20T06:03:06;13.73;;;10.40;;
56075;SDS011;41951;49.022;12.066;2023-08-20T06:05:34;12.32;;;10.82;;
56075;SDS011;41951;49.022;12.066;2023-08-20T06:08:00;17.60;;;11.13;;
56075;SDS011;41951;49.022;12.066;2023-08-20T06:10:25;14.20;;;10.57;;
56075;SDS011;41951;49.022;12.066;2023-08-20T06:12:51;13.60;;;10.05;;
56075;SDS011;41951;49.022;12.066;2023-08-20T06:15:17;14.60;;;10.23;;
56075;SDS011;41951;49.022;12.066;2023-08-20T06:17:43;11.48;;;9.35;;
56075;SDS011;41951;49.022;12.066;2023-08-20T06:20:08;14.00;;;9.50;;
56075;SDS011;41951;49.022;12.066;2023-08-20T06:22:36;11.02;;;8.75;;
56075;SDS011;41951;49.022;12.066;2023-08-20T06:25:02;13.50;;;11.00;;
56075;SDS011;41951;49.022;12.066;2023-08-20T06:27:29;11.18;;;8.60;;
56075;SDS011;41951;49.022;12.066;2023-08-20T06:29:55;14.48;;;9.23;;
56075;SDS011;41951;49.022;12.066;2023-08-20T06:32:20;11.35;;;8.30;;
56075;SDS011;41951;49.022;12.066;2023-08-20T06:34:46;9.05;;;8.05;;
56075;SDS011;41951;49.022;12.066;2023-08-20T06:37:11;10.57;;;8.02;;
56075;SDS011;41951;49.022;12.066;2023-08-20T06:39:37;9.40;;;7.78;;
56075;SDS011;41951;49.022;12.066;2023-08-20T06:42:02;10.45;;;8.35;;
56075;SDS011;41951;49.022;12.066;2023-08-20T06:44:28;9.40;;;7.85;;
56075;SDS011;41951;49.022;12.066;2023-08-20T06:46:53;10.70;;;8.07;;
56075;SDS011;41951;49.022;12.066;2023-08-20T06:49:19;10.35;;;7.63;;
56075;SDS011;41951;49.022;12.066;2023-08-20T06:51:46;10.25;;;7.85;;
56075;SDS011;41951;49.022;12.066;2023-08-20T06:54:11;8.80;;;7.28;;
56075;SDS011;41951;49.022;12.066;2023-08-20T06:56:37;8.90;;;7.93;;
56075;SDS011;41951;49.022;12.066;2023-08-20T06:59:03;9.30;;;7.20;;
56075;SDS011;41951;49.022;12.066;2023-08-20T07:01:28;9.55;;;7.53;;
56075;SDS011;41951;49.022;12.066;2023-08-20T07:03:54;9.80;;;7.35;;
56075;SDS011;41951;49.022;12.066;2023-08-20T07:06:20;9.13;;;7.90;;
56075;SDS011;41951;49.022;12.066;2023-08-20T07:08:45;13.30;;;8.27;;
56075;SDS011;41951;49.022;12.066;2023-08-20T07:11:11;8.85;;;7.95;;
56075;SDS011;41951;49.022;12.066;2023-08-20T07:13:37;10.15;;;7.93;;
56075;SDS011;41951;49.022;12.066;2023-08-20T07:16:02;9.27;;;7.53;;
56075;SDS011;41951;49.022;12.066;2023-08-20T07:18:28;7.85;;;6.80;;
56075;SDS011;41951;49.022;12.066;2023-08-20T07:20:54;8.75;;;7.10;;
56075;SDS011;41951;49.022;12.066;2023-08-20T07:23:21;11.27;;;6.90;;
56075;SDS011;41951;49.022;12.066;2023-08-20T07:25:46;7.80;;;6.90;;
56075;SDS011;41951;49.022;12.066;2023-08-20T07:28:13;8.63;;;7.03;;
56075;SDS011;41951;49.022;12.066;2023-08-20T07:30:39;9.18;;;7.53;;
56075;SDS011;41951;49.022;12.066;2023-08-20T07:33:05;9.10;;;7.68;;
56075;SDS011;41951;49.022;12.066;2023-08-20T07:35:31;8.00;;;6.68;;
56075;SDS011;41951;49.022;12.066;2023-08-20T07:37:57;9.93;;;7.03;;
56075;SDS011;41951;49.022;12.066;2023-08-20T07:40:23;8.15;;;6.35;;
56075;SDS011;41951;49.022;12.066;2023-08-20T07:42:49;7.32;;;6.40;;
56075;SDS011;41951;49.022;12.066;2023-08-20T07:45:15;7.68;;;6.30;;
56075;SDS011;41951;49.022;12.066;2023-08-20T07:47:41;9.00;;;6.32;;
56075;SDS011;41951;49.022;12.066;2023-08-20T07:50:07;8.38;;;6.53;;
56075;SDS011;41951;49.022;12.066;2023-08-20T07:52:33;10.32;;;7.20;;
56075;SDS011;41951;49.022;12.066;2023-08-20T07:54:58;6.63;;;5.85;;
56075;SDS011;41951;49.022;12.066;2023-08-20T07:57:24;9.10;;;6.95;;
56075;SDS011;41951;49.022;12.066;2023-08-20T07:59:50;8.85;;;6.88;;
56075;SDS011;41951;49.022;12.066;2023-08-20T08:02:16;9.27;;;6.32;;
56075;SDS011;41951;49.022;12.066;2023-08-20T08:04:41;9.57;;;6.30;;
56075;SDS011;41951;49.022;12.066;2023-08-20T08:07:08;7.30;;;6.25;;
56075;SDS011;41951;49.022;12.066;2023-08-20T08:09:34;8.73;;;6.78;;
56075;SDS011;41951;49.022;12.066;2023-08-20T08:12:00;9.18;;;7.22;;
56075;SDS011;41951;49.022;12.066;2023-08-20T08:14:26;16.95;;;12.48;;
56075;SDS011;41951;49.022;12.066;2023-08-20T08:16:52;14.25;;;10.93;;
56075;SDS011;41951;49.022;12.066;2023-08-20T08:19:18;8.57;;;6.55;;
56075;SDS011;41951;49.022;12.066;2023-08-20T08:21:45;8.18;;;6.45;;
56075;SDS011;41951;49.022;12.066;2023-08-20T08:24:11;8.13;;;6.10;;
56075;SDS011;41951;49.022;12.066;2023-08-20T08:26:37;11.43;;;8.27;;
56075;SDS011;41951;49.022;12.066;2023-08-20T08:29:04;7.70;;;6.22;;
56075;SDS011;41951;49.022;12.066;2023-08-20T08:31:30;8.05;;;6.40;;
56075;SDS011;41951;49.022;12.066;2023-08-20T08:33:56;11.15;;;6.15;;
56075;SDS011;41951;49.022;12.066;2023-08-20T08:36:22;7.05;;;6.25;;
56075;SDS011;41951;49.022;12.066;2023-08-20T08:38:49;13.88;;;10.68;;
56075;SDS011;41951;49.022;12.066;2023-08-20T08:41:16;8.18;;;6.63;;
56075;SDS011;41951;49.022;12.066;2023-08-20T08:43:41;9.10;;;6.20;;
56075;SDS011;41951;49.022;12.066;2023-08-20T08:46:07;6.78;;;5.75;;
56075;SDS011;41951;49.022;12.066;2023-08-20T08:48:38;7.00;;;5.68;;
56075;SDS011;41951;49.022;12.066;2023-08-20T08:51:05;9.07;;;5.95;;
56075;SDS011;41951;49.022;12.066;2023-08-20T08:53:31;7.70;;;5.93;;
56075;SDS011;41951;49.022;12.066;2023-08-20T08:55:58;6.95;;;5.53;;
56075;SDS011;41951;49.022;12.066;2023-08-20T09:00:53;8.68;;;6.97;;
56075;SDS011;41951;49.022;12.066;2023-08-20T09:03:19;7.65;;;5.32;;
56075;SDS011;41951;49.022;12.066;2023-08-20T09:05:48;8.90;;;6.00;;
56075;SDS011;41951;49.022;12.066;2023-08-20T09:08:24;6.88;;;5.65;;
56075;SDS011;41951;49.022;12.066;2023-08-20T09:10:53;10.23;;;8.52;;
56075;SDS011;41951;49.022;12.066;2023-08-20T09:13:39;12.50;;;9.95;;
56075;SDS011;41951;49.022;12.066;2023-08-20T09:16:07;12.38;;;9.48;;
56075;SDS011;41951;49.022;12.066;2023-08-20T09:18:40;8.32;;;6.53;;
56075;SDS011;41951;49.022;12.066;2023-08-20T09:21:14;7.40;;;5.95;;
56075;SDS011;41951;49.022;12.066;2023-08-20T09:23:45;6.78;;;5.90;;
56075;SDS011;41951;49.022;12.066;2023-08-20T09:26:11;7.30;;;5.18;;
56075;SDS011;41951;49.022;12.066;2023-08-20T09:28:42;9.15;;;7.05;;
56075;SDS011;41951;49.022;12.066;2023-08-20T09:31:09;9.32;;;5.45;;
56075;SDS011;41951;49.022;12.066;2023-08-20T09:33:35;11.10;;;8.77;;
56075;SDS011;41951;49.022;12.066;2023-08-20T09:36:04;6.10;;;5.20;;
56075;SDS011;41951;49.022;12.066;2023-08-20T09:38:36;8.75;;;5.38;;
56075;SDS011;41951;49.022;12.066;2023-08-20T09:41:04;9.07;;;6.20;;
56075;SDS011;41951;49.022;12.066;2023-08-20T09:43:33;6.40;;;5.63;;
56075;SDS011;41951;49.022;12.066;2023-08-20T09:46:06;8.55;;;5.78;;
56075;SDS011;41951;49.022;12.066;2023-08-20T09:48:41;18.88;;;13.43;;
56075;SDS011;41951;49.022;12.066;2023-08-20T09:51:10;7.80;;;6.75;;
56075;SDS011;41951;49.022;12.066;2023-08-20T09:53:49;7.40;;;5.03;;
56075;SDS011;41951;49.022;12.066;2023-08-20T09:56:22;6.25;;;4.93;;
56075;SDS011;41951;49.022;12.066;2023-08-20T09:58:53;5.00;;;4.43;;
56075;SDS011;41951;49.022;12.066;2023-08-20T10:01:20;5.15;;;4.57;;
56075;SDS011;41951;49.022;12.066;2023-08-20T10:03:46;11.55;;;9.65;;
56075;SDS011;41951;49.022;12.066;2023-08-20T10:06:11;8.02;;;5.05;;
56075;SDS011;41951;49.022;12.066;2023-08-20T10:08:38;6.82;;;4.18;;
56075;SDS011;41951;49.022;12.066;2023-08-20T10:11:03;7.13;;;4.68;;
56075;SDS011;41951;49.022;12.066;2023-08-20T10:13:29;7.93;;;6.63;;
56075;SDS011;41951;49.022;12.066;2023-08-20T10:15:55;7.53;;;6.35;;
56075;SDS011;41951;49.022;12.066;2023-08-20T10:18:21;7.20;;;5.07;;
56075;SDS011;41951;49.022;12.066;2023-08-20T10:20:50;8.10;;;5.00;;
56075;SDS011;41951;49.022;12.066;2023-08-20T10:23:19;6.00;;;4.93;;
56075;SDS011;41951;49.022;12.066;2023-08-20T10:25:48;7.13;;;4.90;;
56075;SDS011;41951;49.022;12.066;2023-08-20T10:28:19;6.05;;;5.07;;
56075;SDS011;41951;49.022;12.066;2023-08-20T10:33:38;7.35;;;5.22;;
56075;SDS011;41951;49.022;12.066;2023-08-20T10:36:15;7.55;;;5.05;;
56075;SDS011;41951;49.022;12.066;2023-08-20T10:38:48;7.03;;;5.18;;
56075;SDS011;41951;49.022;12.066;2023-08-20T10:41:15;7.80;;;5.25;;
56075;SDS011;41951;49.022;12.066;2023-08-20T10:43:48;9.35;;;5.30;;
56075;SDS011;41951;49.022;12.066;2023-08-20T10:46:21;8.00;;;5.25;;
56075;SDS011;41951;49.022;12.066;2023-08-20T10:48:51;7.22;;;5.20;;
56075;SDS011;41951;49.022;12.066;2023-08-20T10:51:39;6.18;;;5.22;;
56075;SDS011;41951;49.022;12.066;2023-08-20T10:54:06;6.10;;;5.10;;
56075;SDS011;41951;49.022;12.066;2023-08-20T10:56:43;5.65;;;4.60;;
56075;SDS011;41951;49.022;12.066;2023-08-20T11:01:46;7.30;;;5.63;;
56075;SDS011;41951;49.022;12.066;2023-08-20T11:04:17;6.60;;;5.18;;
56075;SDS011;41951;49.022;12.066;2023-08-20T11:06:49;5.85;;;5.00;;
56075;SDS011;41951;49.022;12.066;2023-08-20T11:09:18;7.55;;;5.00;;
56075;SDS011;41951;49.022;12.066;2023-08-20T11:11:43;6.38;;;5.03;;
56075;SDS011;41951;49.022;12.066;2023-08-20T11:14:13;7.00;;;5.40;;
56075;SDS011;41951;49.022;12.066;2023-08-20T11:16:39;8.23;;;5.90;;
56075;SDS011;41951;49.022;12.066;2023-08-20T11:19:05;8.68;;;5.78;;
56075;SDS011;41951;49.022;12.066;2023-08-20T11:21:34;9.65;;;5.20;;
56075;SDS011;41951;49.022;12.066;2023-08-20T11:24:00;10.25;;;7.65;;
56075;SDS011;41951;49.022;12.066;2023-08-20T11:26:27;8.88;;;5.70;;
56075;SDS011;41951;49.022;12.066;2023-08-20T11:28:52;6.50;;;5.78;;
56075;SDS011;41951;49.022;12.066;2023-08-20T11:31:18;7.07;;;5.38;;
56075;SDS011;41951;49.022;12.066;2023-08-20T11:33:44;6.63;;;5.75;;
56075;SDS011;41951;49.022;12.066;2023-08-20T11:36:10;12.27;;;10.00;;
56075;SDS011;41951;49.022;12.066;2023-08-20T11:38:36;7.47;;;5.30;;
56075;SDS011;41951;49.022;12.066;2023-08-20T11:41:02;7.85;;;6.50;;
56075;SDS011;41951;49.022;12.066;2023-08-20T11:43:28;10.27;;;6.07;;
56075;SDS011;41951;49.022;12.066;2023-08-20T11:45:54;7.72;;;5.63;;
56075;SDS011;41951;49.022;12.066;2023-08-20T11:48:20;8.90;;;5.75;;
56075;SDS011;41951;49.022;12.066;2023-08-20T11:50:49;6.18;;;5.38;;
56075;SDS011;41951;49.022;12.066;2023-08-20T11:53:15;8.13;;;5.30;;
56075;SDS011;41951;49.022;12.066;2023-08-20T11:55:49;8.00;;;5.20;;
56075;SDS011;41951;49.022;12.066;2023-08-20T11:58:14;7.78;;;5.18;;
56075;SDS011;41951;49.022;12.066;2023-08-20T12:00:40;9.10;;;5.05;;
56075;SDS011;41951;49.022;12.066;2023-08-20T12:03:07;8.05;;;4.80;;
56075;SDS011;41951;49.022;12.066;2023-08-20T12:05:34;7.47;;;5.25;;
56075;SDS011;41951;49.022;12.066;2023-08-20T12:08:00;7.45;;;5.20;;
56075;SDS011;41951;49.022;12.066;2023-08-20T12:10:28;13.48;;;6.55;;
56075;SDS011;41951;49.022;12.066;2023-08-20T12:12:55;7.05;;;5.15;;
56075;SDS011;41951;49.022;12.066;2023-08-20T12:15:21;6.47;;;5.13;;
56075;SDS011;41951;49.022;12.066;2023-08-20T12:18:00;7.35;;;5.28;;
56075;SDS011;41951;49.022;12.066;2023-08-20T12:20:29;7.90;;;5.07;;
56075;SDS011;41951;49.022;12.066;2023-08-20T12:22:58;8.88;;;4.65;;
56075;SDS011;41951;49.022;12.066;2023-08-20T12:25:26;7.20;;;5.18;;
56075;SDS011;41951;49.022;12.066;2023-08-20T12:27:54;5.97;;;4.60;;
56075;SDS011;41951;49.022;12.066;2023-08-20T12:30:21;7.10;;;4.93;;
56075;SDS011;41951;49.022;12.066;2023-08-20T12:32:46;6.10;;;4.32;;
56075;SDS011;41951;49.022;12.066;2023-08-20T12:35:12;9.80;;;4.78;;
56075;SDS011;41951;49.022;12.066;2023-08-20T12:37:38;8.10;;;5.15;;
56075;SDS011;41951;49.022;12.066;2023-08-20T12:40:04;7.65;;;4.70;;
56075;SDS011;41951;49.022;12.066;2023-08-20T12:42:34;5.60;;;4.65;;
56075;SDS011;41951;49.022;12.066;2023-08-20T12:44:59;8.23;;;4.68;;
56075;SDS011;41951;49.022;12.066;2023-08-20T12:47:25;5.75;;;4.50;;
56075;SDS011;41951;49.022;12.066;2023-08-20T12:49:50;9.98;;;4.88;;
56075;SDS011;41951;49.022;12.066;2023-08-20T12:52:16;7.55;;;4.20;;
56075;SDS011;41951;49.022;12.066;2023-08-20T12:54:41;6.63;;;4.75;;
56075;SDS011;41951;49.022;12.066;2023-08-20T12:57:07;7.22;;;4.43;;
56075;SDS011;41951;49.022;12.066;2023-08-20T12:59:33;5.15;;;4.15;;
56075;SDS011;41951;49.022;12.066;2023-08-20T13:01:58;7.65;;;4.60;;
56075;SDS011;41951;49.022;12.066;2023-08-20T13:04:24;6.70;;;4.00;;
56075;SDS011;41951;49.022;12.066;2023-08-20T13:06:49;9.85;;;5.20;;
56075;SDS011;41951;49.022;12.066;2023-08-20T13:09:15;9.45;;;6.95;;
56075;SDS011;41951;49.022;12.066;2023-08-20T13:11:42;7.25;;;4.63;;
56075;SDS011;41951;49.022;12.066;2023-08-20T13:14:09;7.55;;;4.15;;
56075;SDS011;41951;49.022;12.066;2023-08-20T13:16:35;6.82;;;4.60;;
56075;SDS011;41951;49.022;12.066;2023-08-20T13:19:01;11.68;;;7.53;;
56075;SDS011;41951;49.022;12.066;2023-08-20T13:21:27;6.32;;;3.97;;
56075;SDS011;41951;49.022;12.066;2023-08-20T13:23:53;5.88;;;4.32;;
56075;SDS011;41951;49.022;12.066;2023-08-20T13:26:19;6.55;;;4.20;;
56075;SDS011;41951;49.022;12.066;2023-08-20T13:28:47;5.15;;;4.35;;
56075;SDS011;41951;49.022;12.066;2023-08-20T13:31:13;6.45;;;4.38;;
56075;SDS011;41951;49.022;12.066;2023-08-20T13:33:39;5.63;;;3.80;;
56075;SDS011;41951;49.022;12.066;2023-08-20T13:36:05;6.55;;;4.20;;
56075;SDS011;41951;49.022;12.066;2023-08-20T13:38:32;5.25;;;3.83;;
56075;SDS011;41951;49.022;12.066;2023-08-20T13:40:57;5.35;;;4.15;;
56075;SDS011;41951;49.022;12.066;2023-08-20T13:43:23;7.85;;;4.18;;
56075;SDS011;41951;49.022;12.066;2023-08-20T13:45:49;7.15;;;4.43;;
56075;SDS011;41951;49.022;12.066;2023-08-20T13:48:14;6.85;;;5.18;;
56075;SDS011;41951;49.022;12.066;2023-08-20T13:50:40;9.43;;;4.75;;
56075;SDS011;41951;49.022;12.066;2023-08-20T13:53:05;6.38;;;4.63;;
56075;SDS011;41951;49.022;12.066;2023-08-20T13:55:31;7.78;;;4.18;;
56075;SDS011;41951;49.022;12.066;2023-08-20T13:57:57;7.22;;;3.97;;
56075;SDS011;41951;49.022;12.066;2023-08-20T14:00:22;5.38;;;3.47;;
56075;SDS011;41951;49.022;12.066;2023-08-20T14:02:48;4.55;;;3.65;;
56075;SDS011;41951;49.022;12.066;2023-08-20T14:05:13;5.50;;;3.80;;
56075;SDS011;41951;49.022;12.066;2023-08-20T14:07:39;5.72;;;3.50;;
56075;SDS011;41951;49.022;12.066;2023-08-20T14:10:06;7.90;;;3.60;;
56075;SDS011;41951;49.022;12.066;2023-08-20T14:12:33;7.05;;;4.00;;
56075;SDS011;41951;49.022;12.066;2023-08-20T14:14:59;6.65;;;3.78;;
56075;SDS011;41951;49.022;12.066;2023-08-20T14:17:24;8.77;;;4.20;;
56075;SDS011;41951;49.022;12.066;2023-08-20T14:19:50;5.53;;;3.58;;
56075;SDS011;41951;49.022;12.066;2023-08-20T14:22:16;4.57;;;3.58;;
56075;SDS011;41951;49.022;12.066;2023-08-20T14:24:42;7.35;;;5.20;;
56075;SDS011;41951;49.022;12.066;2023-08-20T14:27:08;7.80;;;4.68;;
56075;SDS011;41951;49.022;12.066;2023-08-20T14:29:34;4.57;;;3.65;;
56075;SDS011;41951;49.022;12.066;2023-08-20T14:32:00;6.75;;;3.53;;
56075;SDS011;41951;49.022;12.066;2023-08-20T14:34:26;4.72;;;3.50;;
56075;SDS011;41951;49.022;12.066;2023-08-20T14:36:52;6.18;;;3.92;;
56075;SDS011;41951;49.022;12.066;2023-08-20T14:39:17;5.53;;;3.70;;
56075;SDS011;41951;49.022;12.066;2023-08-20T14:41:43;6.10;;;3.70;;